Terminal Aerodrome Forecast
Issued by NWS

Home | Current Version | Previous Version | Text Only | Print | Product List | Glossary On
Versions: 1 2 3 4 5 6 7 8 9 10 11 12 13 14 15 16 17 18 19 20 21 22 23 24 25 26 27 28 29 30 31 32 33 34 35 36 37 38
123
FTUS45 KPSR 301120
TAFPHX
TAF
KPHX 301120Z 3012/3112 33005KT P6SM FEW080 BKN200
     FM301400 VRB05KT P6SM FEW080 BKN200
     FM302000 25010G16KT P6SM SCT090 SCT200
     FM310700 08012KT P6SM SCT080 BKN150
     FM311000 09005KT P6SM FEW080 BKN200=

USA.gov is the U.S. government's official web portal to all federal, state and local government web resources and services.